Aérodrome :
LOGIN :

S'inscrire | Disclaimer

   EN    FR    IT 

 










Légende :    VFR   VFR Marginal   IFR   IFR Intensif   IFR Très Intensif
Visi : 
Plafond : 
>= 8 km
>= 3000ft
5 à 8 km
1000 à 3000 ft
1500m à 5 km
500 à 1000 ft
800 à 1500m
200 à 500 ft
< 800m
< 200 ft
Symboles :   Orages  Brouillard  Fortes neiges  Fortes précipitations  Vent > 20 kt
SIGMETs :   Divers  Orages  Givrage  Turbulence  Onde Orograph.  Cendres Volcan.







- Altitude de l'aérodrome : 297 ft
- Code IATA : BBU


LRBS - Bucarest - Baneasa Aurel Vlaicu

DERNIER METAR :
  • 210230Z 01006KT 310V040 9999 VCSH SCT045CB 23/18 Q1018 R07/19//95 TEMPO 5000 TSRA

METARs EXPIRÉS :
  • 210200Z 36004KT 330V040 9999 VCTS FEW045CB 23/18 Q1018 R07/19//95 NOSIG
  • 210130Z 36004KT 340V040 9999 FEW050CB 23/19 Q1018 R07/19//95 NOSIG
  • 210100Z 35001KT 9999 FEW050CB 23/20 Q1018 R07/19//95 NOSIG
  • 210030Z VRB01KT 9999 FEW050CB 24/19 Q1018 R07/19//95 NOSIG
  • 210000Z 04003KT 350V060 9999 FEW050CB 23/19 Q1018 R07/19//95 BECMG NSC

TAF TAF LRBS
Valide du 21 à 00h jusqu'au 22 à 00h UTC


202300Z 2100/2124 02008KT CAVOK
TEMPO 2100/2106 VRB15KT -TSRA FEW045CB
BECMG 2106/2108 SCT040CB
TEMPO 2108/2117 VRB20G30KT 3000 TSRA
BECMG 2118/2120 NSC
Pas de NOTAMs connus pour ce terrain.



MET'MAP, la Météo Aéronautique d'un coup d'oeil ! - Copyright ORBIFLY Décembre 2007 - Disclaimer

ORBIFLY MET'MAP TEAM :

Programmation & Développement : Alexandra Zaïnal
Conception & Développement : Baudouin d'Aumeries
Co-Programmation & Développement : Marc-Olivier Méhu
Soutien technique & logistique : Manuel Goepfert

Contact : metmap@orbifly.com




SOURCES & CREDITS :

   NOAA